Time;durP1;ratioP1;P1;durP2;ratioP2;P2;SDS_P1;SDS_P2;PMS_P1;PMS_P2;Temp;Humidity;BMP_temperature;BMP_pressure;BME280_temperature;BME280_humidity;BME280_pressure;Samples;Min_cycle;Max_cycle;Signal;HPM_P1;HPM_P2
2023/01/25 00:02:20;;;;;;;41.95;29.60;;;1.20;99.90;;;;;;5069829;28;20504;-67
2023/01/25 00:04:46;;;;;;;41.50;30.00;;;1.20;99.90;;;;;;5068079;28;20110;-67
2023/01/25 00:07:12;;;;;;;43.60;30.05;;;1.20;99.90;;;;;;5066601;28;20040;-65
2023/01/25 00:09:37;;;;;;;42.28;30.73;;;1.20;99.90;;;;;;5069454;28;20075;-66
2023/01/25 00:12:03;;;;;;;41.70;30.13;;;1.20;99.90;;;;;;5069140;28;20032;-66
2023/01/25 00:14:29;;;;;;;42.75;31.02;;;1.20;99.90;;;;;;5068218;28;20504;-65
2023/01/25 00:16:55;;;;;;;39.80;28.95;;;1.20;99.90;;;;;;5069121;28;20098;-67
2023/01/25 00:19:20;;;;;;;42.85;29.75;;;1.20;99.90;;;;;;5069332;28;20039;-69
2023/01/25 00:21:46;;;;;;;41.40;29.38;;;1.30;99.90;;;;;;5069157;28;20102;-67
2023/01/25 00:24:13;;;;;;;43.63;29.70;;;1.30;99.90;;;;;;5066980;28;20454;-66
2023/01/25 00:26:42;;;;;;;41.13;29.45;;;1.30;99.90;;;;;;5066705;28;20052;-67
2023/01/25 00:29:11;;;;;;;40.90;28.98;;;1.20;99.90;;;;;;5068198;28;20131;-64
2023/01/25 00:32:17;;;;;;;39.58;28.92;;;1.20;99.90;;;;;;5068097;28;20093;-67
2023/01/25 00:34:45;;;;;;;41.63;28.55;;;1.20;99.90;;;;;;5067927;28;20409;-65
2023/01/25 00:37:21;;;;;;;41.45;29.42;;;1.20;99.90;;;;;;5067896;28;20043;-65
2023/01/25 00:39:47;;;;;;;41.90;28.45;;;1.20;99.90;;;;;;5069327;28;20036;-65
2023/01/25 00:42:15;;;;;;;38.65;27.73;;;1.20;99.90;;;;;;5065107;28;20114;-65
2023/01/25 00:44:40;;;;;;;41.40;28.75;;;1.10;99.90;;;;;;5068348;28;20036;-67
2023/01/25 00:47:06;;;;;;;40.17;26.80;;;1.10;99.90;;;;;;5063294;28;20102;-67
2023/01/25 00:49:32;;;;;;;35.20;26.55;;;1.10;99.90;;;;;;5069917;28;20513;-68
2023/01/25 00:51:58;;;;;;;36.53;26.50;;;1.10;99.90;;;;;;5067101;28;20384;-68
2023/01/25 00:54:24;;;;;;;38.78;28.30;;;1.10;99.90;;;;;;5067855;28;20401;-66
2023/01/25 00:56:55;;;;;;;36.40;26.33;;;1.10;99.90;;;;;;5065984;28;20443;-64
2023/01/25 00:59:22;;;;;;;37.70;26.23;;;1.10;99.90;;;;;;5069878;28;20033;-66
2023/01/25 01:01:48;;;;;;;34.55;25.55;;;1.10;99.90;;;;;;5083554;28;20029;-67
2023/01/25 01:04:14;;;;;;;33.75;25.40;;;1.10;99.90;;;;;;5066506;28;20129;-65
2023/01/25 01:06:41;;;;;;;34.63;25.48;;;1.10;99.90;;;;;;5068254;28;20121;-65
2023/01/25 01:09:11;;;;;;;34.97;24.70;;;1.00;99.90;;;;;;5067707;28;20044;-68
2023/01/25 01:11:37;;;;;;;32.08;23.75;;;1.00;99.90;;;;;;5068357;28;20120;-65
2023/01/25 01:14:03;;;;;;;36.22;25.23;;;1.00;99.90;;;;;;5065143;28;20120;-66
2023/01/25 01:16:29;;;;;;;35.35;25.42;;;1.10;99.90;;;;;;5068459;28;20036;-68
2023/01/25 01:18:54;;;;;;;34.65;25.27;;;1.10;99.90;;;;;;5067364;28;20464;-64
2023/01/25 01:21:20;;;;;;;34.53;24.70;;;1.10;99.90;;;;;;5068659;28;20107;-66
2023/01/25 01:23:46;;;;;;;30.77;23.52;;;1.20;99.90;;;;;;5064891;28;20048;-65
2023/01/25 01:26:14;;;;;;;33.90;25.17;;;1.20;99.90;;;;;;5068518;28;20048;-66
2023/01/25 01:28:40;;;;;;;34.20;25.58;;;1.20;99.90;;;;;;5067607;28;20482;-67
2023/01/25 01:31:10;;;;;;;33.28;25.33;;;1.10;99.90;;;;;;5065244;28;20063;-64
2023/01/25 01:33:35;;;;;;;33.05;24.70;;;1.20;99.90;;;;;;5067690;28;20072;-66
2023/01/25 01:36:13;;;;;;;31.80;23.75;;;1.10;99.90;;;;;;5066662;28;20036;-65
2023/01/25 01:38:39;;;;;;;33.45;25.73;;;1.20;99.90;;;;;;5072579;28;20051;-65
2023/01/25 01:41:05;;;;;;;31.30;23.60;;;1.20;99.90;;;;;;5072419;28;20040;-66
2023/01/25 01:43:31;;;;;;;32.35;24.35;;;1.20;99.90;;;;;;5071502;28;20109;-65
2023/01/25 01:46:00;;;;;;;33.40;24.35;;;1.20;99.90;;;;;;5070382;28;20386;-64
2023/01/25 01:49:03;;;;;;;31.95;23.52;;;1.10;99.90;;;;;;5072499;28;20048;-65
2023/01/25 01:51:41;;;;;;;33.53;24.85;;;1.10;99.90;;;;;;5071239;28;20044;-65
2023/01/25 01:54:23;;;;;;;31.77;23.65;;;1.00;99.90;;;;;;5071624;28;20086;-67
2023/01/25 01:57:06;;;;;;;31.98;23.50;;;1.00;99.90;;;;;;5051995;28;20040;-68
2023/01/25 02:00:00;;;;;;;29.63;22.35;;;0.90;99.90;;;;;;5055406;28;20124;-65
2023/01/25 02:02:26;;;;;;;33.65;23.92;;;0.90;99.90;;;;;;5071544;28;20072;-65
2023/01/25 02:04:57;;;;;;;33.25;24.98;;;0.90;99.90;;;;;;5072349;28;20483;-65
2023/01/25 02:07:34;;;;;;;31.30;23.88;;;0.80;99.90;;;;;;5070128;28;20035;-64
2023/01/25 02:10:00;;;;;;;32.28;23.85;;;0.90;99.90;;;;;;5071696;28;20044;-67
2023/01/25 02:12:27;;;;;;;32.22;23.65;;;0.90;99.90;;;;;;5070711;28;20115;-65
2023/01/25 02:14:53;;;;;;;30.98;22.95;;;0.90;99.90;;;;;;5070770;28;20126;-66
2023/01/25 02:17:29;;;;;;;31.98;24.10;;;0.80;99.90;;;;;;5070412;28;20047;-66
2023/01/25 02:19:58;;;;;;;32.97;25.05;;;0.80;99.90;;;;;;5070067;28;20109;-66
2023/01/25 02:22:39;;;;;;;31.70;23.77;;;0.90;99.90;;;;;;5071398;28;20044;-66
2023/01/25 02:25:10;;;;;;;32.35;24.55;;;0.90;99.90;;;;;;5069721;28;20507;-66
2023/01/25 02:27:40;;;;;;;33.00;24.67;;;0.90;99.90;;;;;;5068784;28;20131;-65
2023/01/25 02:30:07;;;;;;;32.17;23.35;;;0.90;99.90;;;;;;5071439;28;20040;-65
2023/01/25 02:32:33;;;;;;;33.67;24.98;;;0.90;99.90;;;;;;5070328;28;20066;-68
2023/01/25 02:34:58;;;;;;;31.80;24.45;;;0.90;99.90;;;;;;5071489;28;20044;-64
2023/01/25 02:37:25;;;;;;;33.88;25.73;;;0.90;99.90;;;;;;5067180;28;20119;-64
2023/01/25 02:39:51;;;;;;;32.97;24.52;;;1.00;99.90;;;;;;5068766;28;20060;-65
2023/01/25 02:42:17;;;;;;;31.48;23.90;;;0.90;99.90;;;;;;5070909;28;20052;-65
2023/01/25 02:44:43;;;;;;;31.30;23.88;;;0.90;99.90;;;;;;5070342;28;20041;-66
2023/01/25 02:47:08;;;;;;;34.78;25.75;;;0.90;99.90;;;;;;5069007;28;20052;-65
2023/01/25 02:49:35;;;;;;;34.17;24.80;;;1.00;99.90;;;;;;5070806;28;20414;-66
2023/01/25 02:52:02;;;;;;;32.22;24.20;;;1.00;99.90;;;;;;5069043;28;20441;-64
2023/01/25 02:54:28;;;;;;;33.75;24.10;;;1.10;99.90;;;;;;5069827;28;20045;-67
2023/01/25 02:56:54;;;;;;;32.65;23.55;;;1.10;99.90;;;;;;5069418;28;20051;-68
2023/01/25 02:59:20;;;;;;;33.63;24.45;;;1.00;99.90;;;;;;5053569;28;20119;-67
2023/01/25 03:01:46;;;;;;;34.40;24.70;;;1.10;99.90;;;;;;5071236;28;20090;-67
2023/01/25 03:04:12;;;;;;;33.90;25.23;;;1.10;99.90;;;;;;5070924;28;20032;-67
2023/01/25 03:06:38;;;;;;;35.85;25.98;;;1.10;99.90;;;;;;5069425;28;20044;-65
2023/01/25 03:09:07;;;;;;;35.22;24.77;;;1.00;99.90;;;;;;5069273;28;20119;-66
2023/01/25 03:11:33;;;;;;;35.13;25.17;;;1.00;99.90;;;;;;5069684;28;20052;-65
2023/01/25 03:13:59;;;;;;;33.10;24.70;;;0.90;99.90;;;;;;5070168;28;20040;-66
2023/01/25 03:16:25;;;;;;;36.55;25.67;;;0.80;99.90;;;;;;5070300;28;20033;-64
2023/01/25 03:18:54;;;;;;;36.22;25.90;;;0.80;99.90;;;;;;5069515;28;20044;-65
2023/01/25 03:21:21;;;;;;;36.42;26.13;;;0.80;99.90;;;;;;5070647;28;20479;-67
2023/01/25 03:23:53;;;;;;;35.10;24.77;;;0.80;99.90;;;;;;5069711;28;20040;-63
2023/01/25 03:26:21;;;;;;;34.33;24.83;;;0.80;99.90;;;;;;5069793;28;20048;-65
2023/01/25 03:28:46;;;;;;;34.20;24.45;;;0.80;99.90;;;;;;5052494;28;20071;-67
2023/01/25 03:31:15;;;;;;;35.20;24.83;;;0.80;99.90;;;;;;5068589;28;20041;-63
2023/01/25 03:33:41;;;;;;;36.72;25.65;;;0.80;99.90;;;;;;5070310;28;20036;-66
2023/01/25 03:36:08;;;;;;;38.60;26.95;;;0.80;99.90;;;;;;5069498;28;20036;-66
2023/01/25 03:38:34;;;;;;;36.78;25.95;;;0.80;99.90;;;;;;5070002;28;20041;-64
2023/01/25 03:41:01;;;;;;;34.75;25.58;;;0.90;99.90;;;;;;5052624;28;20044;-64
2023/01/25 03:43:28;;;;;;;35.53;25.60;;;0.90;99.90;;;;;;5069814;28;20137;-64
2023/01/25 03:45:58;;;;;;;35.65;25.75;;;0.90;99.90;;;;;;5068778;28;20036;-67
2023/01/25 03:48:25;;;;;;;33.90;24.75;;;0.90;99.90;;;;;;5069729;28;20047;-65
2023/01/25 03:50:53;;;;;;;36.25;25.35;;;1.00;99.90;;;;;;5067901;28;20046;-65
2023/01/25 03:53:26;;;;;;;36.05;24.98;;;1.00;99.90;;;;;;5069847;28;20087;-66
2023/01/25 03:55:54;;;;;;;36.08;25.50;;;0.90;99.90;;;;;;5068369;28;20455;-67
2023/01/25 03:58:19;;;;;;;36.67;26.92;;;1.00;99.90;;;;;;5068086;28;20045;-65
2023/01/25 04:00:45;;;;;;;37.33;26.35;;;0.90;99.90;;;;;;5067584;28;20036;-67
2023/01/25 04:03:11;;;;;;;37.15;26.55;;;1.00;99.90;;;;;;5069578;28;20044;-67
2023/01/25 04:05:36;;;;;;;39.08;27.65;;;1.00;99.90;;;;;;5067486;28;20045;-66
2023/01/25 04:08:02;;;;;;;37.78;26.75;;;1.00;99.90;;;;;;5069512;28;20036;-65
2023/01/25 04:10:28;;;;;;;38.33;26.45;;;0.90;99.90;;;;;;5068711;28;20106;-67
2023/01/25 04:12:53;;;;;;;39.95;27.13;;;0.90;99.90;;;;;;5067810;28;20094;-68
2023/01/25 04:15:19;;;;;;;38.42;26.92;;;0.90;99.90;;;;;;5069340;28;20079;-66
2023/01/25 04:17:44;;;;;;;44.55;27.17;;;0.90;99.90;;;;;;5067306;28;20115;-66
2023/01/25 04:20:10;;;;;;;40.58;27.20;;;0.90;99.90;;;;;;5069171;28;20102;-65
2023/01/25 04:22:36;;;;;;;41.60;27.35;;;0.90;99.90;;;;;;5067688;28;20051;-65
2023/01/25 04:25:02;;;;;;;40.90;28.10;;;0.80;99.90;;;;;;5066768;28;20080;-66
2023/01/25 04:27:27;;;;;;;39.92;27.45;;;0.80;99.90;;;;;;5065316;28;20083;-66
2023/01/25 04:29:53;;;;;;;40.97;28.10;;;0.70;99.90;;;;;;5068787;28;20040;-67
2023/01/25 04:32:18;;;;;;;39.45;26.98;;;0.60;99.90;;;;;;5065893;28;20051;-65
2023/01/25 04:34:44;;;;;;;38.00;26.42;;;0.60;99.90;;;;;;5068746;28;20044;-65
2023/01/25 04:37:10;;;;;;;38.60;26.83;;;0.70;99.90;;;;;;5067956;28;20380;-65
2023/01/25 04:39:35;;;;;;;41.38;27.65;;;0.70;99.90;;;;;;5068970;28;20040;-67
2023/01/25 04:42:01;;;;;;;40.88;27.83;;;0.70;99.90;;;;;;5067838;28;20052;-66
2023/01/25 04:44:27;;;;;;;41.65;28.67;;;0.80;99.90;;;;;;5067694;28;20119;-65
2023/01/25 04:46:52;;;;;;;41.63;28.20;;;0.60;99.90;;;;;;5068626;28;20360;-62
2023/01/25 04:49:18;;;;;;;38.88;27.33;;;0.70;99.90;;;;;;5068001;28;20479;-67
2023/01/25 04:51:43;;;;;;;39.28;27.08;;;0.70;99.90;;;;;;5068858;28;20049;-66
2023/01/25 04:54:09;;;;;;;41.20;27.02;;;0.60;99.90;;;;;;5066294;28;20523;-67
2023/01/25 04:56:35;;;;;;;39.95;27.35;;;0.60;99.90;;;;;;5067605;28;20487;-64
2023/01/25 04:59:00;;;;;;;41.15;28.35;;;0.60;99.90;;;;;;5066227;28;20079;-66
2023/01/25 05:01:26;;;;;;;39.92;26.55;;;0.50;99.90;;;;;;5067698;28;20128;-67
2023/01/25 05:03:51;;;;;;;40.08;27.27;;;0.50;99.90;;;;;;5066103;28;20056;-68
2023/01/25 05:06:17;;;;;;;38.92;26.88;;;0.50;99.90;;;;;;5068269;28;20036;-64
2023/01/25 05:08:43;;;;;;;41.53;28.20;;;0.50;99.90;;;;;;5067798;28;20372;-67
2023/01/25 05:11:08;;;;;;;42.05;27.50;;;0.50;99.90;;;;;;5051453;28;20110;-65
2023/01/25 05:13:34;;;;;;;38.63;26.63;;;0.40;99.90;;;;;;5051861;28;20064;-66
2023/01/25 05:16:00;;;;;;;39.75;27.08;;;0.40;99.90;;;;;;5067606;28;20040;-66
2023/01/25 05:18:25;;;;;;;38.92;26.95;;;0.40;99.90;;;;;;5050193;28;20055;-66
2023/01/25 05:20:57;;;;;;;42.10;27.98;;;0.40;99.90;;;;;;5067485;28;20036;-65
2023/01/25 05:23:23;;;;;;;39.42;26.55;;;0.40;99.90;;;;;;5068206;28;20119;-67
2023/01/25 05:28:32;;;;;;;41.15;26.85;;;0.50;99.90;;;;;;5066468;28;20048;-64
2023/01/25 05:30:58;;;;;;;42.28;29.02;;;0.50;99.90;;;;;;5068528;28;20040;-63
2023/01/25 05:33:24;;;;;;;42.00;29.40;;;0.50;99.90;;;;;;5065700;28;20406;-65
2023/01/25 05:35:49;;;;;;;40.90;27.65;;;0.50;99.90;;;;;;5065534;28;20037;-67
2023/01/25 05:38:15;;;;;;;42.25;28.00;;;0.50;99.90;;;;;;5068257;28;20557;-66
2023/01/25 05:40:40;;;;;;;41.22;27.73;;;0.50;99.90;;;;;;5069285;28;20050;-65
2023/01/25 05:43:07;;;;;;;43.22;29.17;;;0.40;99.90;;;;;;5067531;28;20124;-66
2023/01/25 05:45:32;;;;;;;42.70;28.25;;;0.30;99.90;;;;;;5067871;28;20041;-65
2023/01/25 05:47:58;;;;;;;44.72;28.80;;;0.30;99.90;;;;;;5067684;28;20110;-63
2023/01/25 05:50:25;;;;;;;44.05;27.67;;;0.20;99.90;;;;;;5051421;28;20090;-66
2023/01/25 05:52:51;;;;;;;39.53;26.90;;;0.20;99.90;;;;;;5050892;28;20072;-64
2023/01/25 05:55:16;;;;;;;40.03;27.35;;;0.20;99.90;;;;;;5068079;28;20064;-65
2023/01/25 05:57:42;;;;;;;39.95;26.73;;;0.20;99.90;;;;;;5064473;28;20043;-64
2023/01/25 06:00:09;;;;;;;39.75;26.48;;;0.10;99.90;;;;;;5068328;28;20036;-66
2023/01/25 06:02:35;;;;;;;43.75;26.63;;;0.00;99.90;;;;;;5067135;28;20537;-66
2023/01/25 06:05:01;;;;;;;38.92;25.67;;;0.00;99.90;;;;;;5068028;28;20036;-67
2023/01/25 06:07:27;;;;;;;41.33;26.83;;;0.10;99.90;;;;;;5066038;28;20082;-66
2023/01/25 06:09:53;;;;;;;41.47;26.67;;;0.20;99.90;;;;;;5066835;28;20087;-66
2023/01/25 06:12:21;;;;;;;39.30;27.13;;;0.30;99.90;;;;;;5051587;28;20364;-64
2023/01/25 06:14:47;;;;;;;40.05;26.80;;;0.30;99.90;;;;;;5066821;28;20163;-67
2023/01/25 06:17:13;;;;;;;37.20;25.95;;;0.50;99.90;;;;;;5066769;28;20059;-65
2023/01/25 06:19:39;;;;;;;40.67;26.83;;;0.50;99.90;;;;;;5063537;28;20041;-66
2023/01/25 06:22:07;;;;;;;39.67;26.60;;;0.40;99.90;;;;;;5067508;28;20487;-65
2023/01/25 06:24:33;;;;;;;38.22;26.17;;;0.40;99.90;;;;;;5067159;28;20130;-66
2023/01/25 06:26:58;;;;;;;41.20;27.67;;;0.40;99.90;;;;;;5071119;28;20613;-64
2023/01/25 06:29:24;;;;;;;38.92;26.75;;;0.50;99.90;;;;;;5069436;28;20063;-65
2023/01/25 06:31:50;;;;;;;39.45;25.83;;;0.50;99.90;;;;;;5050392;28;20110;-65
2023/01/25 06:34:15;;;;;;;39.75;26.77;;;0.50;99.90;;;;;;5071072;28;20036;-65
2023/01/25 06:36:41;;;;;;;37.58;25.80;;;0.60;99.90;;;;;;5069990;28;20106;-65
2023/01/25 06:39:08;;;;;;;41.70;28.02;;;0.60;99.90;;;;;;5069771;28;20521;-65
2023/01/25 06:41:33;;;;;;;40.85;26.58;;;0.60;99.90;;;;;;5071235;28;20067;-65
2023/01/25 06:43:59;;;;;;;41.72;28.08;;;0.60;99.90;;;;;;5070340;28;20141;-66
2023/01/25 06:46:24;;;;;;;41.38;27.42;;;0.60;99.90;;;;;;5070969;28;20056;-66
2023/01/25 06:48:50;;;;;;;42.25;27.83;;;0.60;99.90;;;;;;5066021;28;20056;-66
2023/01/25 06:51:16;;;;;;;39.45;27.27;;;0.60;99.90;;;;;;5070525;28;20048;-63
2023/01/25 06:53:44;;;;;;;40.40;27.88;;;0.50;99.90;;;;;;5069485;28;20099;-66
2023/01/25 06:56:17;;;;;;;38.83;26.35;;;0.60;99.90;;;;;;5070500;28;20046;-66
2023/01/25 06:58:42;;;;;;;;;;;0.60;99.90;;;;;;5070025;28;20044;-66
2023/01/25 07:01:29;;;;;;;40.60;26.40;;;0.50;99.90;;;;;;5069937;28;19924;-65
2023/01/25 07:03:57;;;;;;;42.70;27.85;;;0.50;99.90;;;;;;5069347;28;20099;-65
2023/01/25 07:06:23;;;;;;;42.00;27.92;;;0.40;99.90;;;;;;5068877;28;20430;-65
2023/01/25 07:08:49;;;;;;;40.67;27.63;;;0.40;99.90;;;;;;5070767;28;20452;-68
2023/01/25 07:11:17;;;;;;;42.97;27.52;;;0.40;99.90;;;;;;5069727;28;20047;-63
2023/01/25 07:13:44;;;;;;;43.40;27.73;;;0.30;99.90;;;;;;5053587;28;20060;-65
2023/01/25 07:16:20;;;;;;;45.28;27.25;;;0.20;99.90;;;;;;5070652;28;20033;-65
2023/01/25 07:18:46;;;;;;;42.92;27.63;;;0.20;99.90;;;;;;5071234;28;20032;-65
2023/01/25 07:21:19;;;;;;;40.65;26.90;;;0.20;99.90;;;;;;5069035;28;20043;-66
2023/01/25 07:23:45;;;;;;;40.83;27.20;;;0.10;99.90;;;;;;5068795;28;20041;-64
2023/01/25 07:26:21;;;;;;;44.38;28.50;;;0.10;99.90;;;;;;5067579;28;20557;-65
2023/01/25 07:28:48;;;;;;;41.53;27.25;;;0.10;99.90;;;;;;5067818;28;20218;-64
2023/01/25 07:31:14;;;;;;;47.47;28.08;;;0.00;99.90;;;;;;5068138;28;20364;-65
2023/01/25 07:33:40;;;;;;;44.67;27.65;;;0.10;99.90;;;;;;5068299;28;20046;-65
2023/01/25 07:36:07;;;;;;;42.35;27.65;;;0.00;99.90;;;;;;5068442;28;20127;-65
2023/01/25 07:38:33;;;;;;;43.88;27.42;;;0.00;99.90;;;;;;5069845;28;20101;-63
2023/01/25 07:40:59;;;;;;;46.55;29.52;;;0.00;99.90;;;;;;5068936;28;20062;-68
2023/01/25 07:43:25;;;;;;;40.78;27.38;;;0.00;99.90;;;;;;5069676;28;20129;-71
2023/01/25 07:45:52;;;;;;;46.25;28.48;;;0.00;99.90;;;;;;5067143;28;20558;-64
2023/01/25 07:48:19;;;;;;;43.63;27.05;;;0.00;99.90;;;;;;5067442;28;20119;-65
2023/01/25 07:50:48;;;;;;;44.42;28.15;;;0.00;99.90;;;;;;5069452;28;20051;-66
2023/01/25 07:53:15;;;;;;;40.92;27.52;;;0.10;99.90;;;;;;5067325;28;20479;-66
2023/01/25 07:55:40;;;;;;;40.53;26.40;;;0.10;99.90;;;;;;5069526;28;20522;-64
2023/01/25 07:58:07;;;;;;;42.08;26.88;;;0.10;99.90;;;;;;5068588;28;20032;-67
2023/01/25 08:00:33;;;;;;;40.45;26.80;;;0.00;99.90;;;;;;5068430;28;20407;-65
2023/01/25 08:02:59;;;;;;;38.33;24.95;;;-0.10;99.90;;;;;;5069017;28;20048;-67
2023/01/25 08:05:25;;;;;;;38.53;24.77;;;-0.10;99.90;;;;;;5067735;28;20044;-63
2023/01/25 08:07:50;;;;;;;40.03;26.23;;;-0.10;99.90;;;;;;5069040;28;20047;-67
2023/01/25 08:10:16;;;;;;;41.53;25.95;;;-0.10;99.90;;;;;;5063353;28;20048;-65
2023/01/25 08:12:45;;;;;;;40.08;25.33;;;0.00;99.90;;;;;;5068620;28;20045;-66
2023/01/25 08:15:12;;;;;;;40.70;26.00;;;0.00;99.90;;;;;;5051218;28;20060;-66
2023/01/25 08:17:38;;;;;;;43.03;27.08;;;-0.10;99.90;;;;;;5068649;28;20040;-67
2023/01/25 08:20:05;;;;;;;42.75;26.77;;;-0.10;99.90;;;;;;5066910;28;20036;-65
2023/01/25 08:22:30;;;;;;;40.83;27.25;;;0.00;99.90;;;;;;5067634;28;20043;-66
2023/01/25 08:24:56;;;;;;;41.45;26.73;;;0.00;99.90;;;;;;5069022;28;20056;-67
2023/01/25 08:27:22;;;;;;;41.80;27.00;;;0.00;99.90;;;;;;5067661;28;20089;-66
2023/01/25 08:29:49;;;;;;;40.50;26.10;;;0.10;99.90;;;;;;5080850;28;20402;-66
2023/01/25 08:32:15;;;;;;;38.60;25.58;;;0.10;99.90;;;;;;5066564;28;20049;-67
2023/01/25 08:34:41;;;;;;;38.05;24.90;;;0.10;99.90;;;;;;5067867;28;20101;-67
2023/01/25 08:37:07;;;;;;;38.42;25.08;;;0.10;99.90;;;;;;5068792;28;20446;-66
2023/01/25 08:39:32;;;;;;;38.38;24.52;;;0.20;99.90;;;;;;5066260;28;20125;-66
2023/01/25 08:41:58;;;;;;;39.20;25.65;;;0.10;99.90;;;;;;5067637;28;20051;-67
2023/01/25 08:44:24;;;;;;;38.65;25.15;;;0.10;99.90;;;;;;5067379;28;20055;-67
2023/01/25 08:46:50;;;;;;;40.67;26.50;;;0.10;99.90;;;;;;5068329;28;20048;-66
2023/01/25 08:49:16;;;;;;;39.45;25.67;;;0.10;99.90;;;;;;5066981;28;20115;-67
2023/01/25 08:51:42;;;;;;;38.65;24.45;;;0.20;99.90;;;;;;5066128;28;20495;-65
2023/01/25 08:54:11;;;;;;;37.22;23.70;;;0.10;99.90;;;;;;5067453;28;20036;-69
2023/01/25 08:56:41;;;;;;;33.90;22.98;;;0.20;99.90;;;;;;5066288;28;20032;-66
2023/01/25 08:59:09;;;;;;;39.50;25.17;;;0.20;99.90;;;;;;5067695;28;20068;-67
2023/01/25 09:01:35;;;;;;;39.17;24.67;;;0.20;99.90;;;;;;5065626;28;20048;-68
2023/01/25 09:04:01;;;;;;;39.17;25.65;;;0.20;99.90;;;;;;5068525;28;20047;-66
2023/01/25 09:06:26;;;;;;;37.90;24.92;;;0.10;99.90;;;;;;5067453;28;20222;-66
2023/01/25 09:08:52;;;;;;;37.10;24.25;;;0.10;99.90;;;;;;5067844;28;20059;-69
2023/01/25 09:11:20;;;;;;;34.72;22.40;;;0.00;99.90;;;;;;5065718;28;20475;-66
2023/01/25 09:13:47;;;;;;;37.40;23.95;;;-0.10;99.90;;;;;;5050215;28;20419;-66
2023/01/25 09:16:27;;;;;;;36.90;23.52;;;-0.10;99.90;;;;;;5049917;28;20049;-66
2023/01/25 09:18:59;;;;;;;37.15;23.70;;;-0.10;99.90;;;;;;5066337;28;20091;-64
2023/01/25 09:21:25;;;;;;;35.70;22.65;;;0.00;99.90;;;;;;5066753;28;20043;-67
2023/01/25 09:23:52;;;;;;;36.58;24.02;;;0.00;99.90;;;;;;5067473;28;20042;-66
2023/01/25 09:26:18;;;;;;;37.10;23.48;;;-0.10;99.90;;;;;;5066933;28;20061;-67
2023/01/25 09:28:49;;;;;;;37.58;24.02;;;-0.10;99.90;;;;;;5066625;28;20040;-66
2023/01/25 09:31:16;;;;;;;38.72;24.08;;;0.00;99.90;;;;;;5067135;28;20076;-67
2023/01/25 09:33:42;;;;;;;38.35;23.80;;;0.00;99.90;;;;;;5065883;28;20462;-65
2023/01/25 09:36:09;;;;;;;39.70;24.60;;;0.00;99.90;;;;;;5066402;28;20079;-64
2023/01/25 09:38:34;;;;;;;39.17;25.30;;;0.00;99.90;;;;;;5067169;28;20484;-64
2023/01/25 09:41:03;;;;;;;45.42;27.38;;;0.00;99.90;;;;;;5068125;28;20092;-65
2023/01/25 09:43:53;;;;;;;47.42;27.70;;;-0.10;99.90;;;;;;5067926;28;20513;-67
2023/01/25 09:46:38;;;;;;;44.15;25.77;;;0.00;99.90;;;;;;5067594;28;20072;-67
2023/01/25 09:49:41;;;;;;;42.58;25.17;;;0.00;99.90;;;;;;5066501;28;20127;-66
2023/01/25 09:52:29;;;;;;;42.33;25.58;;;0.10;99.90;;;;;;5066422;28;20093;-65
2023/01/25 09:54:55;;;;;;;45.20;27.08;;;0.10;99.90;;;;;;5067392;28;20040;-68
2023/01/25 09:57:24;;;;;;;45.75;27.02;;;0.00;99.90;;;;;;5068032;28;20036;-67
2023/01/25 09:59:52;;;;;;;46.47;26.40;;;0.00;99.90;;;;;;5072025;28;20044;-68
2023/01/25 10:02:42;;;;;;;50.30;27.55;;;-0.10;99.90;;;;;;5068029;28;20043;-67
2023/01/25 10:05:33;;;;;;;45.17;26.88;;;0.00;99.90;;;;;;5072130;28;20032;-67
2023/01/25 10:08:22;;;;;;;49.33;27.92;;;-0.10;99.90;;;;;;5071751;28;20076;-68
2023/01/25 10:10:57;;;;;;;48.97;28.23;;;-0.10;99.90;;;;;;5054364;28;20052;-67
2023/01/25 10:13:23;;;;;;;50.28;28.50;;;-0.10;99.90;;;;;;5068549;28;20037;-68
2023/01/25 10:15:54;;;;;;;51.78;28.73;;;-0.20;99.90;;;;;;5071037;28;20041;-68
2023/01/25 10:18:28;;;;;;;50.33;27.83;;;-0.20;99.90;;;;;;5069207;28;20040;-67
2023/01/25 10:20:58;;;;;;;49.40;27.17;;;-0.20;99.90;;;;;;5066668;28;20037;-68
2023/01/25 10:23:38;;;;;;;45.17;24.83;;;-0.30;99.90;;;;;;5066967;28;20056;-66
2023/01/25 10:26:12;;;;;;;42.97;24.95;;;-0.30;99.90;;;;;;5070312;28;20126;-67
2023/01/25 10:29:11;;;;;;;44.97;25.00;;;-0.40;99.90;;;;;;5069068;28;20052;-68
2023/01/25 10:31:52;;;;;;;46.47;24.70;;;-0.40;99.90;;;;;;5069122;28;20449;-68
2023/01/25 10:34:30;;;;;;;48.00;26.20;;;-0.30;99.90;;;;;;5069617;28;20047;-68
2023/01/25 10:37:00;;;;;;;46.08;26.45;;;-0.30;99.90;;;;;;5070754;28;20490;-68
2023/01/25 10:39:25;;;;;;;46.22;26.98;;;-0.30;99.90;;;;;;5084941;28;20056;-70
2023/01/25 10:42:04;;;;;;;46.28;26.27;;;-0.40;99.90;;;;;;5069081;28;20049;-69
2023/01/25 10:44:30;;;;;;;45.25;25.58;;;-0.40;99.90;;;;;;5071931;28;20053;-67
2023/01/25 10:47:03;;;;;;;46.10;24.77;;;-0.30;99.90;;;;;;5069216;28;20518;-67
2023/01/25 10:49:35;;;;;;;48.20;25.23;;;-0.30;99.90;;;;;;5082340;28;20506;-67
2023/01/25 10:52:23;;;;;;;46.33;25.42;;;-0.30;99.90;;;;;;5070896;28;20993;-68
2023/01/25 10:55:12;;;;;;;46.38;24.13;;;-0.30;99.90;;;;;;5067423;28;20080;-67
2023/01/25 10:57:47;;;;;;;48.13;25.85;;;-0.30;99.90;;;;;;5070448;28;20043;-66
2023/01/25 11:00:24;;;;;;;45.42;24.38;;;-0.30;99.90;;;;;;5069458;28;20399;-67
2023/01/25 11:02:50;;;;;;;43.60;23.80;;;-0.20;99.90;;;;;;5070304;28;20463;-67
2023/01/25 11:05:40;;;;;;;42.25;22.60;;;-0.20;99.90;;;;;;5067581;28;20127;-68
2023/01/25 11:08:31;;;;;;;44.10;23.48;;;-0.10;99.90;;;;;;5068660;28;20036;-67
2023/01/25 11:10:58;;;;;;;45.42;23.42;;;-0.10;99.90;;;;;;5050793;28;20036;-68
2023/01/25 11:13:28;;;;;;;46.63;24.10;;;-0.10;99.90;;;;;;5069923;28;20102;-68
2023/01/25 11:16:08;;;;;;;44.90;23.70;;;0.00;99.90;;;;;;5069242;28;20047;-70
2023/01/25 11:18:34;;;;;;;45.85;23.05;;;-0.10;99.90;;;;;;5068820;28;20093;-67
2023/01/25 11:21:05;;;;;;;46.00;24.38;;;-0.10;99.90;;;;;;5070233;28;20751;-65
2023/01/25 11:23:32;;;;;;;44.65;23.13;;;-0.10;99.90;;;;;;5069260;28;20123;-66
2023/01/25 11:26:18;;;;;;;43.20;23.58;;;0.00;99.90;;;;;;5049750;28;20059;-66
2023/01/25 11:28:47;;;;;;;45.55;24.05;;;0.00;99.90;;;;;;5067404;28;20037;-67
2023/01/25 11:31:20;;;;;;;48.42;25.38;;;0.00;99.90;;;;;;5067885;28;20029;-65
2023/01/25 11:33:46;;;;;;;44.67;23.85;;;0.00;99.90;;;;;;5047047;28;20049;-65
2023/01/25 11:36:18;;;;;;;47.42;26.05;;;-0.10;99.90;;;;;;5069846;28;20157;-67
2023/01/25 11:39:12;;;;;;;44.90;25.13;;;0.00;99.90;;;;;;5065355;28;20127;-70
2023/01/25 11:41:57;;;;;;;45.92;24.38;;;-0.10;99.90;;;;;;5066390;28;20056;-68
2023/01/25 11:44:42;;;;;;;46.83;24.02;;;0.00;99.90;;;;;;5050015;28;20040;-66
2023/01/25 11:47:29;;;;;;;45.63;24.50;;;0.00;99.90;;;;;;5067511;28;20076;-69
2023/01/25 11:49:55;;;;;;;46.78;24.55;;;0.00;99.90;;;;;;5067803;28;20802;-67
2023/01/25 11:52:29;;;;;;;45.70;24.02;;;0.00;99.90;;;;;;5063195;28;20120;-67
2023/01/25 11:55:24;;;;;;;46.75;24.50;;;0.00;99.90;;;;;;5067916;28;20040;-66
2023/01/25 11:58:20;;;;;;;47.85;23.75;;;0.00;99.90;;;;;;5068533;28;20040;-70
2023/01/25 12:01:12;;;;;;;44.63;23.05;;;0.00;99.90;;;;;;5067141;28;20464;-69
2023/01/25 12:03:46;;;;;;;44.83;24.05;;;0.00;99.90;;;;;;5068847;28;20052;-68
2023/01/25 12:06:29;;;;;;;47.65;25.00;;;-0.10;99.90;;;;;;5068062;28;20044;-68
2023/01/25 12:09:13;;;;;;;49.58;25.58;;;-0.10;99.90;;;;;;5064949;28;20113;-67
2023/01/25 12:11:55;;;;;;;47.72;24.67;;;-0.10;99.90;;;;;;5066866;28;20070;-69
2023/01/25 12:14:51;;;;;;;48.35;24.25;;;-0.10;99.90;;;;;;5060337;28;20045;-67
2023/01/25 12:17:45;;;;;;;45.55;24.70;;;-0.10;99.90;;;;;;5067379;28;20490;-67
2023/01/25 12:20:32;;;;;;;46.00;24.30;;;-0.10;99.90;;;;;;5066923;28;20040;-66
2023/01/25 12:23:18;;;;;;;47.90;24.70;;;0.00;99.90;;;;;;5066621;28;20102;-69
2023/01/25 12:26:01;;;;;;;52.72;25.10;;;-0.10;99.90;;;;;;5065477;28;20056;-68
2023/01/25 12:29:02;;;;;;;;;;;0.00;99.90;;;;;;5066702;28;20131;-67
2023/01/25 12:31:45;;;;;;;45.45;24.52;;;0.00;99.90;;;;;;4973920;28;19917;-68
2023/01/25 12:34:18;;;;;;;;;;;0.00;99.90;;;;;;4989456;28;20524;-66
2023/01/25 12:36:47;;;;;;;46.92;24.67;;;0.00;99.90;;;;;;4991615;28;19917;-67
2023/01/25 12:39:31;;;;;;;51.10;25.48;;;-0.10;99.90;;;;;;4989719;28;20057;-68
2023/01/25 12:42:18;;;;;;;51.40;26.10;;;-0.10;99.90;;;;;;4990620;28;20185;-70
2023/01/25 12:44:53;;;;;;;51.08;25.25;;;-0.10;99.90;;;;;;4991089;28;20049;-66
2023/01/25 12:47:27;;;;;;;51.85;25.02;;;-0.10;99.90;;;;;;4990592;28;20056;-70
2023/01/25 12:50:21;;;;;;;49.15;24.60;;;-0.10;99.90;;;;;;4988636;28;20042;-67
2023/01/25 12:52:53;;;;;;;47.78;23.70;;;0.00;99.90;;;;;;4988026;28;20085;-67
2023/01/25 12:55:19;;;;;;;52.43;25.70;;;0.00;99.90;;;;;;4988861;28;20049;-68